createdAt,value
2023-03-26T00:08:59.477Z,714
2023-03-26T00:28:59.528Z,735
2023-03-26T00:48:59.594Z,734
2023-03-26T01:08:59.564Z,731
2023-03-26T01:28:59.602Z,737
2023-03-26T01:48:59.613Z,693
2023-03-26T02:08:59.640Z,684
2023-03-26T02:28:59.718Z,651
2023-03-26T02:48:59.724Z,641
2023-03-26T03:08:59.727Z,578
2023-03-26T03:28:59.768Z,595
2023-03-26T03:48:59.811Z,579
2023-03-26T04:08:59.824Z,572
2023-03-26T04:28:59.932Z,560
2023-03-26T04:48:59.881Z,595
2023-03-26T05:08:59.900Z,583
2023-03-26T05:28:59.918Z,552
2023-03-26T05:48:59.981Z,550
2023-03-26T06:09:01.293Z,541
2023-03-26T06:29:00.006Z,551
2023-03-26T06:49:00.090Z,559
2023-03-26T07:09:00.048Z,568
2023-03-26T07:29:03.886Z,543
2023-03-26T07:49:00.113Z,570
2023-03-26T08:09:00.125Z,564
2023-03-26T08:29:00.203Z,540
2023-03-26T08:49:00.188Z,540
2023-03-26T09:09:00.202Z,553
2023-03-26T09:29:00.254Z,545
2023-03-26T09:49:00.265Z,560
2023-03-26T10:09:00.297Z,552
2023-03-26T10:29:00.315Z,556
2023-03-26T10:49:00.357Z,549
2023-03-26T11:09:00.403Z,563
2023-03-26T11:29:03.536Z,576
2023-03-26T11:49:00.445Z,588
2023-03-26T12:09:00.439Z,595
2023-03-26T12:29:00.482Z,596
2023-03-26T12:49:00.501Z,614
2023-03-26T13:09:00.527Z,604
2023-03-26T13:29:00.541Z,618
2023-03-26T13:49:00.581Z,624
2023-03-26T14:09:00.608Z,605
2023-03-26T14:29:00.661Z,615
2023-03-26T14:49:00.661Z,600
2023-03-26T15:09:00.661Z,601
2023-03-26T15:29:00.684Z,589
2023-03-26T15:49:00.715Z,592
2023-03-26T16:09:00.754Z,579
2023-03-26T16:49:00.877Z,572
2023-03-26T17:09:00.833Z,578
2023-03-26T17:29:00.851Z,589
2023-03-26T17:49:00.925Z,573
2023-03-26T18:09:00.924Z,568
2023-03-26T18:29:00.960Z,579
2023-03-26T18:49:00.980Z,597
2023-03-26T19:09:00.987Z,580
2023-03-26T19:29:01.021Z,592
2023-03-26T19:49:01.058Z,573
2023-03-26T20:09:01.142Z,592
2023-03-26T20:29:01.130Z,571
2023-03-26T20:49:01.159Z,577
2023-03-26T21:09:01.184Z,582
2023-03-26T21:29:01.196Z,565
2023-03-26T21:49:01.217Z,574
2023-03-26T22:09:01.292Z,575
2023-03-26T22:29:01.332Z,568
2023-03-26T22:49:01.323Z,577
2023-03-26T23:09:01.360Z,564
2023-03-26T23:29:01.398Z,561
2023-03-26T23:49:01.409Z,571
